Time;durP1;ratioP1;P1;durP2;ratioP2;P2;SDS_P1;SDS_P2;PMS_P1;PMS_P2;Temp;Humidity;BMP_temperature;BMP_pressure;BME280_temperature;BME280_humidity;BME280_pressure;Samples;Min_cycle;Max_cycle;Signal;HPM_P1;HPM_P2
2022/03/07 00:00:28;;;;;;;38.53;18.40;;;-1.90;1.00;;;;;;4398857;28;660651;-72
2022/03/07 00:03:15;;;;;;;36.73;16.60;;;-1.80;1.00;;;;;;4376914;28;659693;-72
2022/03/07 00:06:05;;;;;;;31.97;16.30;;;-1.90;1.00;;;;;;4399791;28;661462;-72
2022/03/07 00:08:53;;;;;;;37.93;18.40;;;-1.90;1.00;;;;;;4374301;28;660800;-71
2022/03/07 00:11:41;;;;;;;37.00;18.07;;;-1.90;1.00;;;;;;4377764;28;660078;-72
2022/03/07 00:14:29;;;;;;;48.10;18.60;;;-1.90;1.00;;;;;;4396640;28;660332;-72
2022/03/07 00:17:16;;;;;;;39.83;16.20;;;-1.90;1.00;;;;;;4376615;28;659755;-71
2022/03/07 00:20:05;;;;;;;38.73;17.43;;;-1.90;1.00;;;;;;4395951;28;660429;-72
2022/03/07 00:22:53;;;;;;;43.60;18.00;;;-1.90;1.00;;;;;;4365650;28;660892;-72
2022/03/07 00:25:41;;;;;;;35.77;16.53;;;-1.90;1.00;;;;;;4377483;28;659764;-71
2022/03/07 00:28:28;;;;;;;37.42;16.88;;;-1.90;1.00;;;;;;4395656;28;661176;-72
2022/03/07 00:31:16;;;;;;;35.13;16.40;;;-2.00;1.00;;;;;;4376908;28;660158;-72
2022/03/07 00:34:04;;;;;;;33.67;16.07;;;-1.90;1.00;;;;;;4394247;28;660072;-72
2022/03/07 00:36:51;;;;;;;38.53;16.37;;;-1.90;1.00;;;;;;4368967;28;659832;-72
2022/03/07 00:39:40;;;;;;;42.07;18.80;;;-2.00;1.00;;;;;;4395067;28;660399;-72
2022/03/07 00:42:27;;;;;;;36.35;16.67;;;-1.90;1.00;;;;;;4376203;28;661013;-72
2022/03/07 00:45:15;;;;;;;38.13;16.87;;;-1.90;1.00;;;;;;4395166;28;659975;-72
2022/03/07 00:48:03;;;;;;;37.97;16.83;;;-2.00;1.00;;;;;;4395088;28;660754;-72
2022/03/07 00:50:51;;;;;;;36.03;16.40;;;-2.00;1.00;;;;;;4375853;28;659593;-72
2022/03/07 00:53:39;;;;;;;33.40;16.40;;;-2.00;1.00;;;;;;4394983;28;661107;-72
2022/03/07 00:56:28;;;;;;;35.90;16.83;;;-2.00;1.00;;;;;;4376000;28;660039;-72
2022/03/07 00:59:15;;;;;;;39.60;16.20;;;-2.00;1.00;;;;;;4382778;28;660465;-72
2022/03/07 01:02:03;;;;;;;34.00;15.53;;;-2.00;1.00;;;;;;4394356;28;661022;-72
2022/03/07 01:04:51;;;;;;;40.03;16.63;;;-2.00;1.00;;;;;;4376136;28;659689;-72
2022/03/07 01:07:39;;;;;;;36.70;16.43;;;-2.00;1.00;;;;;;4395264;28;660879;-72
2022/03/07 01:10:26;;;;;;;32.03;14.93;;;-2.00;1.00;;;;;;4376381;28;660103;-71
2022/03/07 01:13:15;;;;;;;30.67;15.40;;;-2.10;1.00;;;;;;4395500;28;660066;-72
2022/03/07 01:16:03;;;;;;;33.83;15.70;;;-2.00;1.00;;;;;;4370620;28;660353;-72
2022/03/07 01:18:51;;;;;;;32.63;15.87;;;-2.10;1.00;;;;;;4376535;28;660062;-71
2022/03/07 01:21:39;;;;;;;31.77;14.13;;;-2.10;1.00;;;;;;4398888;28;660872;-72
2022/03/07 01:24:28;;;;;;;28.67;14.87;;;-2.10;1.00;;;;;;4376219;28;660212;-71
2022/03/07 01:27:15;;;;;;;30.80;14.85;;;-2.10;1.00;;;;;;4376531;28;659475;-72
2022/03/07 01:30:05;;;;;;;35.87;16.40;;;-2.10;1.00;;;;;;4391314;28;660468;-72
2022/03/07 01:32:53;;;;;;;33.30;16.03;;;-2.10;1.00;;;;;;4372166;28;660515;-71
2022/03/07 01:35:41;;;;;;;33.33;15.33;;;-2.10;1.00;;;;;;4375414;28;659646;-72
2022/03/07 01:38:28;;;;;;;39.70;15.63;;;-2.10;1.00;;;;;;4393650;28;660483;-72
2022/03/07 01:41:16;;;;;;;38.33;14.63;;;-2.10;1.00;;;;;;4376429;28;659666;-71
2022/03/07 01:44:04;;;;;;;35.13;16.20;;;-2.10;1.00;;;;;;4394878;28;660837;-72
2022/03/07 01:46:52;;;;;;;34.07;16.10;;;-2.20;1.00;;;;;;4375327;28;659593;-72
2022/03/07 01:49:41;;;;;;;34.20;15.13;;;-2.20;1.00;;;;;;4389823;28;659288;-72
2022/03/07 01:52:28;;;;;;;39.00;16.90;;;-2.20;1.00;;;;;;4395248;28;660021;-72
2022/03/07 01:55:16;;;;;;;41.37;17.07;;;-2.20;1.00;;;;;;4366216;28;659905;-72
2022/03/07 01:58:05;;;;;;;33.33;16.00;;;-2.20;1.00;;;;;;4375328;28;659582;-72
2022/03/07 02:00:52;;;;;;;40.55;17.50;;;-2.30;1.00;;;;;;4370413;28;661634;-72
2022/03/07 02:03:42;;;;;;;40.10;16.93;;;-2.30;1.00;;;;;;4391425;28;660024;-71
2022/03/07 02:06:29;;;;;;;44.13;18.53;;;-2.30;1.00;;;;;;4394972;28;659541;-72
2022/03/07 02:09:17;;;;;;;38.93;17.30;;;-2.30;1.00;;;;;;4375857;28;659937;-72
2022/03/07 02:12:05;;;;;;;37.15;17.75;;;-2.30;1.00;;;;;;4394519;28;660473;-72
2022/03/07 02:14:52;;;;;;;37.77;17.67;;;-2.30;1.00;;;;;;4371655;28;660984;-72
2022/03/07 02:17:43;;;;;;;48.67;19.30;;;-2.30;1.00;;;;;;4394950;28;660599;-72
2022/03/07 02:20:32;;;;;;;39.73;16.80;;;-2.30;1.00;;;;;;4376099;28;659729;-72
2022/03/07 02:23:22;;;;;;;37.73;17.07;;;-2.30;1.00;;;;;;4395767;28;659625;-72
2022/03/07 02:26:10;;;;;;;37.60;16.90;;;-2.30;1.00;;;;;;4397556;28;659611;-72
2022/03/07 02:28:58;;;;;;;39.43;18.30;;;-2.40;1.00;;;;;;4373316;28;660306;-72
2022/03/07 02:31:45;;;;;;;36.77;18.10;;;-2.40;1.00;;;;;;4389603;28;659493;-72
2022/03/07 02:34:33;;;;;;;41.23;17.83;;;-2.40;1.00;;;;;;4397913;28;661104;-72
2022/03/07 02:37:20;;;;;;;44.33;19.13;;;-2.40;1.00;;;;;;4386015;28;659924;-72
2022/03/07 02:40:11;;;;;;;40.20;18.23;;;-2.40;1.00;;;;;;4398134;28;661117;-72
2022/03/07 02:42:58;;;;;;;39.70;18.80;;;-2.50;1.00;;;;;;4374993;28;660347;-72
2022/03/07 02:45:46;;;;;;;36.27;16.33;;;-2.50;1.00;;;;;;4379289;28;659857;-71
2022/03/07 02:48:33;;;;;;;41.17;18.77;;;-2.50;1.00;;;;;;4397734;28;660591;-72
2022/03/07 02:51:21;;;;;;;37.60;17.77;;;-2.60;1.00;;;;;;4378654;28;660381;-72
2022/03/07 02:54:08;;;;;;;42.67;17.57;;;-2.60;1.00;;;;;;4401276;28;659919;-72
2022/03/07 02:56:57;;;;;;;36.23;17.37;;;-2.60;1.00;;;;;;4378736;28;660193;-72
2022/03/07 02:59:44;;;;;;;39.28;18.30;;;-2.60;1.00;;;;;;4397474;28;659904;-72
2022/03/07 03:02:32;;;;;;;37.00;17.63;;;-2.60;1.00;;;;;;4378804;28;660904;-72
2022/03/07 03:05:19;;;;;;;41.00;17.53;;;-2.60;1.00;;;;;;4397610;28;660052;-73
2022/03/07 03:08:07;;;;;;;39.67;17.80;;;-2.70;1.00;;;;;;4378487;28;659959;-72
2022/03/07 03:10:55;;;;;;;38.78;17.65;;;-2.70;1.00;;;;;;4397307;28;659561;-72
2022/03/07 03:13:44;;;;;;;37.03;17.43;;;-2.70;1.00;;;;;;4375595;28;659908;-72
2022/03/07 03:16:32;;;;;;;36.58;17.50;;;-2.70;1.00;;;;;;4378571;28;659641;-72
2022/03/07 03:19:20;;;;;;;36.42;17.42;;;-2.70;1.00;;;;;;4397257;28;660008;-72
2022/03/07 03:22:08;;;;;;;43.80;19.17;;;-2.70;1.00;;;;;;4378172;28;660962;-72
2022/03/07 03:24:56;;;;;;;42.97;19.47;;;-2.70;1.00;;;;;;4378463;28;659975;-72
2022/03/07 03:27:46;;;;;;;39.57;18.07;;;-2.70;1.00;;;;;;4397399;28;660180;-72
2022/03/07 03:30:35;;;;;;;41.60;20.03;;;-2.80;1.00;;;;;;4374189;28;659944;-72
2022/03/07 03:33:23;;;;;;;43.60;20.27;;;-2.80;1.00;;;;;;4370344;28;660679;-72
2022/03/07 03:36:11;;;;;;;40.27;18.43;;;-2.80;1.00;;;;;;4378170;28;659627;-72
2022/03/07 03:38:58;;;;;;;37.80;17.47;;;-2.80;1.00;;;;;;4401429;28;660714;-72
2022/03/07 03:41:46;;;;;;;38.30;17.37;;;-2.90;1.00;;;;;;4378301;28;659922;-72
2022/03/07 03:44:33;;;;;;;42.93;17.77;;;-2.90;1.00;;;;;;4400686;28;660353;-72
2022/03/07 03:47:22;;;;;;;37.43;18.17;;;-2.90;1.00;;;;;;4377992;28;659869;-72
2022/03/07 03:50:11;;;;;;;34.83;17.10;;;-2.90;1.00;;;;;;4396674;28;659450;-72
2022/03/07 03:52:58;;;;;;;36.83;17.63;;;-2.90;1.00;;;;;;4374081;28;659911;-72
2022/03/07 03:55:46;;;;;;;40.03;17.70;;;-2.90;1.00;;;;;;4371250;28;659582;-72
2022/03/07 03:58:34;;;;;;;40.75;17.52;;;-2.90;1.00;;;;;;4396673;28;660521;-72
2022/03/07 04:01:21;;;;;;;37.27;17.40;;;-3.00;1.00;;;;;;4377009;28;660124;-72
2022/03/07 04:04:10;;;;;;;38.00;16.87;;;-3.00;1.00;;;;;;4396083;28;660434;-72
2022/03/07 04:06:58;;;;;;;34.73;16.90;;;-3.00;1.00;;;;;;4373605;28;660712;-72
2022/03/07 04:09:46;;;;;;;35.57;16.43;;;-3.00;1.00;;;;;;4385384;28;659434;-72
2022/03/07 04:12:34;;;;;;;44.80;17.70;;;-3.00;1.00;;;;;;4400003;28;660878;-72
2022/03/07 04:15:27;;;;;;;38.37;17.07;;;-3.00;1.00;;;;;;4377823;28;659686;-72
2022/03/07 04:18:20;;;;;;;37.97;16.87;;;-3.00;1.00;;;;;;4377484;28;659628;-72
2022/03/07 04:21:15;;;;;;;41.70;17.37;;;-3.00;1.00;;;;;;4350532;28;660158;-72
2022/03/07 04:24:06;;;;;;;39.97;18.00;;;-2.90;1.00;;;;;;4350560;28;660220;-72
2022/03/07 04:26:55;;;;;;;39.90;18.07;;;-2.90;1.00;;;;;;4372962;28;660767;-72
2022/03/07 04:29:47;;;;;;;38.73;18.53;;;-2.90;1.00;;;;;;4373714;28;661719;-72
2022/03/07 04:32:37;;;;;;;40.23;17.83;;;-2.90;1.00;;;;;;4373478;28;659569;-72
2022/03/07 04:35:31;;;;;;;38.83;18.57;;;-2.90;1.00;;;;;;4373496;28;659804;-72
2022/03/07 04:38:26;;;;;;;41.88;19.08;;;-2.90;1.00;;;;;;4373184;28;660418;-72
2022/03/07 04:41:20;;;;;;;36.47;17.05;;;-2.90;1.00;;;;;;4373095;28;660043;-73
2022/03/07 04:44:08;;;;;;;36.67;18.47;;;-3.00;1.00;;;;;;4349820;28;660058;-72
2022/03/07 04:46:56;;;;;;;44.23;18.07;;;-2.90;1.00;;;;;;4385277;28;660875;-72
2022/03/07 04:49:52;;;;;;;43.20;17.03;;;-2.90;1.00;;;;;;4395601;28;659411;-72
2022/03/07 04:52:41;;;;;;;40.53;16.70;;;-2.90;1.00;;;;;;4372454;28;659732;-72
2022/03/07 04:55:32;;;;;;;37.50;17.37;;;-2.90;1.00;;;;;;4361780;28;660273;-73
2022/03/07 04:58:20;;;;;;;36.90;17.17;;;-2.90;1.00;;;;;;4354478;28;659759;-72
2022/03/07 05:01:09;;;;;;;32.92;16.40;;;-2.90;1.00;;;;;;4358508;28;660931;-72
2022/03/07 05:03:59;;;;;;;42.70;18.00;;;-2.90;1.00;;;;;;4358599;28;659960;-71
2022/03/07 05:06:49;;;;;;;35.70;15.43;;;-2.90;1.00;;;;;;4354446;28;660804;-72
2022/03/07 05:09:41;;;;;;;37.85;16.42;;;-2.90;1.00;;;;;;4354708;28;659960;-72
2022/03/07 05:12:34;;;;;;;33.90;17.43;;;-2.90;1.00;;;;;;4354548;28;660440;-71
2022/03/07 05:15:22;;;;;;;38.93;16.50;;;-2.90;1.00;;;;;;4331756;28;661313;-71
2022/03/07 05:18:09;;;;;;;32.93;16.27;;;-2.90;1.00;;;;;;4377345;28;660277;-72
2022/03/07 05:21:06;;;;;;;39.33;16.73;;;-2.80;1.00;;;;;;4354083;28;659617;-72
2022/03/07 05:24:36;;;;;;;38.37;16.30;;;-2.90;1.00;;;;;;4354544;28;660477;-72
2022/03/07 05:27:24;;;;;;;40.07;16.30;;;-2.90;1.00;;;;;;4353968;28;660032;-71
2022/03/07 05:30:17;;;;;;;34.42;16.48;;;-2.80;1.00;;;;;;4358652;28;659972;-72
2022/03/07 05:33:04;;;;;;;38.67;17.70;;;-2.90;1.00;;;;;;4354198;28;659705;-71
2022/03/07 05:35:52;;;;;;;33.27;15.37;;;-2.80;1.00;;;;;;4357397;28;659751;-72
2022/03/07 05:38:39;;;;;;;41.00;17.30;;;-2.80;1.00;;;;;;4376856;28;660045;-72
2022/03/07 05:41:27;;;;;;;36.87;17.00;;;-2.80;1.00;;;;;;4358055;28;659608;-72
2022/03/07 05:44:14;;;;;;;41.97;17.60;;;-2.80;1.00;;;;;;4376807;28;659693;-71
2022/03/07 05:47:04;;;;;;;41.73;17.73;;;-2.80;1.00;;;;;;4357996;28;659961;-72
2022/03/07 05:49:51;;;;;;;39.97;16.80;;;-2.70;1.00;;;;;;4354662;28;659790;-71
2022/03/07 05:52:39;;;;;;;30.97;15.27;;;-2.70;1.00;;;;;;4376803;28;660957;-71
2022/03/07 05:55:27;;;;;;;32.93;15.70;;;-2.70;1.00;;;;;;4367470;28;660042;-72
2022/03/07 05:58:14;;;;;;;32.87;16.70;;;-2.60;1.00;;;;;;4394729;28;659561;-71
2022/03/07 06:01:02;;;;;;;35.83;16.77;;;-2.70;1.00;;;;;;4376046;28;660541;-71
2022/03/07 06:03:56;;;;;;;35.60;16.13;;;-2.70;1.00;;;;;;4392730;28;659406;-71
2022/03/07 06:06:47;;;;;;;39.83;17.63;;;-2.60;1.00;;;;;;4371726;28;660051;-72
2022/03/07 06:09:39;;;;;;;39.50;17.13;;;-2.70;1.00;;;;;;4371815;28;659682;-72
2022/03/07 06:12:27;;;;;;;40.23;17.87;;;-2.60;1.00;;;;;;4349044;28;660241;-72
2022/03/07 06:15:15;;;;;;;44.63;18.67;;;-2.60;1.00;;;;;;4394885;28;660143;-72
2022/03/07 06:18:02;;;;;;;39.20;18.03;;;-2.50;1.00;;;;;;4371700;28;660988;-72
2022/03/07 06:20:51;;;;;;;38.40;17.53;;;-2.50;1.00;;;;;;4394614;28;659361;-72
2022/03/07 06:23:39;;;;;;;43.50;18.77;;;-2.50;1.00;;;;;;4371872;28;660432;-72
2022/03/07 06:26:27;;;;;;;36.03;17.17;;;-2.50;1.00;;;;;;4371815;28;660718;-72
2022/03/07 06:29:14;;;;;;;42.92;19.17;;;-2.40;1.00;;;;;;4394558;28;659746;-72
2022/03/07 06:32:04;;;;;;;44.47;18.27;;;-2.40;1.00;;;;;;4361361;28;660431;-72
2022/03/07 06:34:56;;;;;;;39.43;17.60;;;-2.30;1.00;;;;;;4375705;28;659545;-72
2022/03/07 06:37:52;;;;;;;38.27;17.97;;;-2.30;1.00;;;;;;4371708;28;660523;-72
2022/03/07 06:40:46;;;;;;;41.23;19.23;;;-2.20;1.00;;;;;;4371145;28;659404;-72
2022/03/07 06:43:37;;;;;;;37.33;16.53;;;-2.20;1.00;;;;;;4371299;28;659755;-72
2022/03/07 06:46:28;;;;;;;42.77;19.00;;;-2.20;1.00;;;;;;4371702;28;659877;-72
2022/03/07 06:49:17;;;;;;;46.77;21.03;;;-2.20;1.00;;;;;;4352853;28;659881;-72
2022/03/07 06:52:05;;;;;;;41.53;20.10;;;-2.20;1.00;;;;;;4392697;28;660328;-72
2022/03/07 06:54:56;;;;;;;39.10;18.87;;;-2.10;1.00;;;;;;4371162;28;660428;-72
2022/03/07 06:57:49;;;;;;;46.73;20.23;;;-2.00;1.00;;;;;;4371686;28;660942;-72
2022/03/07 07:00:39;;;;;;;45.27;21.37;;;-2.10;1.00;;;;;;4348062;28;660320;-72
2022/03/07 07:03:30;;;;;;;44.60;19.73;;;-2.00;1.00;;;;;;4375561;28;659223;-72
2022/03/07 07:06:20;;;;;;;44.60;20.90;;;-1.90;1.00;;;;;;4371735;28;660583;-72
2022/03/07 07:09:12;;;;;;;45.57;21.37;;;-1.80;1.00;;;;;;4374762;28;660882;-72
2022/03/07 07:12:11;;;;;;;28.70;13.97;;;-1.70;1.00;;;;;;4374715;28;660568;-72
2022/03/07 07:15:00;;;;;;;33.33;15.53;;;-1.70;1.00;;;;;;4378340;28;659409;-72
2022/03/07 07:17:55;;;;;;;47.03;19.77;;;-1.90;1.00;;;;;;4378482;28;659878;-72
2022/03/07 07:20:51;;;;;;;47.80;19.77;;;-2.00;1.00;;;;;;4374317;28;659828;-72
2022/03/07 07:23:41;;;;;;;43.23;20.77;;;-2.00;1.00;;;;;;4374487;28;660356;-72
2022/03/07 07:26:34;;;;;;;36.63;17.43;;;-1.90;1.00;;;;;;4373384;28;659724;-72
2022/03/07 07:29:27;;;;;;;40.83;18.13;;;-2.00;1.00;;;;;;4378664;28;659746;-73
2022/03/07 07:32:21;;;;;;;40.50;19.60;;;-2.00;1.00;;;;;;4374241;28;660092;-72
2022/03/07 07:35:16;;;;;;;52.97;21.00;;;-2.00;1.00;;;;;;4374305;28;659990;-72
2022/03/07 07:38:05;;;;;;;44.13;18.93;;;-1.90;1.00;;;;;;4374192;28;660288;-72
2022/03/07 07:41:00;;;;;;;45.17;19.60;;;-1.90;1.00;;;;;;4377756;28;660378;-72
2022/03/07 07:43:49;;;;;;;37.70;16.57;;;-1.90;1.00;;;;;;4331963;28;660169;-72
2022/03/07 07:46:45;;;;;;;40.13;16.77;;;-1.80;1.00;;;;;;4369299;28;660331;-72
2022/03/07 07:49:34;;;;;;;38.93;17.20;;;-1.80;1.00;;;;;;4374091;28;659971;-72
2022/03/07 07:52:23;;;;;;;42.50;16.53;;;-1.60;1.00;;;;;;4377976;28;660266;-72
2022/03/07 07:55:12;;;;;;;34.53;16.37;;;-1.50;1.00;;;;;;4377797;28;659646;-72
2022/03/07 07:58:05;;;;;;;31.57;15.30;;;-1.40;1.00;;;;;;4396325;28;659610;-72
2022/03/07 08:00:53;;;;;;;31.80;14.33;;;-1.20;1.00;;;;;;4350756;28;659882;-72
2022/03/07 08:03:50;;;;;;;33.83;15.37;;;-1.00;1.00;;;;;;4378037;28;659758;-72
2022/03/07 08:06:42;;;;;;;34.07;14.47;;;-0.80;1.00;;;;;;4350008;28;660884;-72
2022/03/07 08:09:34;;;;;;;31.27;14.77;;;-0.80;1.00;;;;;;4368178;28;660358;-72
2022/03/07 08:12:26;;;;;;;30.73;14.17;;;-0.70;1.00;;;;;;4373860;28;660684;-72
2022/03/07 08:15:17;;;;;;;33.27;13.03;;;-0.60;1.00;;;;;;4372905;28;659901;-72
2022/03/07 08:18:08;;;;;;;29.87;12.10;;;-0.40;1.00;;;;;;4366181;28;659802;-72
2022/03/07 08:21:01;;;;;;;26.00;13.18;;;-0.30;1.00;;;;;;4377653;28;659975;-70
2022/03/07 08:24:00;;;;;;;32.47;14.37;;;-0.20;1.00;;;;;;4373487;28;661322;-72
2022/03/07 08:26:55;;;;;;;30.77;12.23;;;0.00;1.00;;;;;;4350728;28;659989;-72
2022/03/07 08:29:50;;;;;;;20.77;10.63;;;0.20;1.00;;;;;;4351749;28;660364;-72
2022/03/07 08:32:40;;;;;;;25.60;12.07;;;0.00;1.00;;;;;;4351691;28;659252;-72
2022/03/07 08:35:32;;;;;;;24.83;11.93;;;0.20;1.00;;;;;;4374942;28;659236;-72
2022/03/07 08:38:27;;;;;;;22.47;11.10;;;0.10;1.00;;;;;;4374677;28;659167;-72
2022/03/07 08:41:23;;;;;;;25.07;11.73;;;0.20;1.00;;;;;;4374343;28;659242;-72
2022/03/07 08:44:13;;;;;;;22.53;11.00;;;0.20;1.00;;;;;;4355726;28;659199;-71
2022/03/07 08:47:03;;;;;;;23.92;10.57;;;0.40;1.00;;;;;;4378650;28;659006;-71
2022/03/07 08:49:59;;;;;;;25.85;11.18;;;0.70;1.00;;;;;;4382714;28;658529;-72
2022/03/07 08:52:53;;;;;;;24.83;10.80;;;0.80;1.00;;;;;;4351635;28;660321;-72
2022/03/07 08:55:52;;;;;;;21.23;7.80;;;0.90;1.00;;;;;;4351213;28;659416;-72
2022/03/07 08:58:46;;;;;;;20.40;9.77;;;0.70;1.00;;;;;;4375639;28;657649;-72
2022/03/07 09:01:41;;;;;;;20.80;9.60;;;0.70;1.00;;;;;;4375512;28;657810;-72
2022/03/07 09:04:32;;;;;;;21.03;10.00;;;0.80;1.00;;;;;;4370810;28;657770;-70
2022/03/07 09:07:21;;;;;;;18.37;7.50;;;1.00;1.00;;;;;;4374000;28;658683;-72
2022/03/07 09:10:11;;;;;;;11.57;6.30;;;0.90;1.00;;;;;;4374970;28;658215;-71
2022/03/07 09:13:03;;;;;;;23.87;8.10;;;0.80;1.00;;;;;;4375558;28;658844;-72
2022/03/07 09:15:56;;;;;;;19.50;8.35;;;0.70;1.00;;;;;;4354455;28;657518;-72
2022/03/07 09:18:44;;;;;;;17.60;9.03;;;0.80;1.00;;;;;;4368194;28;658312;-72
2022/03/07 09:21:31;;;;;;;24.77;9.70;;;1.00;1.00;;;;;;4378916;28;657576;-71
2022/03/07 09:24:19;;;;;;;18.02;8.35;;;1.20;1.00;;;;;;4401850;28;658458;-72
2022/03/07 09:27:06;;;;;;;18.37;9.00;;;1.00;1.00;;;;;;4379153;28;657719;-72
2022/03/07 09:29:55;;;;;;;22.43;11.27;;;1.10;1.00;;;;;;4397076;28;657972;-71
2022/03/07 09:32:43;;;;;;;28.67;11.63;;;1.40;1.00;;;;;;4373449;28;660009;-71
2022/03/07 09:35:31;;;;;;;27.13;11.23;;;1.50;1.00;;;;;;4377730;28;658886;-71
2022/03/07 09:38:18;;;;;;;21.70;10.13;;;1.50;1.00;;;;;;4399103;28;658406;-71
2022/03/07 09:41:06;;;;;;;23.63;11.63;;;1.40;1.00;;;;;;4377794;28;659070;-71
2022/03/07 09:43:54;;;;;;;27.30;11.17;;;1.30;1.00;;;;;;4390413;28;659178;-71
2022/03/07 09:46:42;;;;;;;24.97;10.07;;;1.30;1.00;;;;;;4373269;28;658712;-71
2022/03/07 09:49:36;;;;;;;16.60;7.93;;;1.10;1.00;;;;;;4387594;28;658623;-72
2022/03/07 09:52:25;;;;;;;20.77;9.13;;;1.30;1.00;;;;;;4373797;28;657393;-72
2022/03/07 09:55:25;;;;;;;18.63;9.77;;;1.40;1.00;;;;;;4371807;28;657824;-72
2022/03/07 09:58:15;;;;;;;25.77;10.33;;;1.60;1.00;;;;;;4351863;28;657643;-71
2022/03/07 10:01:13;;;;;;;22.33;9.83;;;1.60;1.00;;;;;;4373164;28;658976;-71
2022/03/07 10:04:12;;;;;;;21.67;9.70;;;1.60;1.00;;;;;;4355624;28;657968;-71
2022/03/07 10:07:06;;;;;;;21.80;9.57;;;1.80;1.00;;;;;;4363643;28;657670;-71
2022/03/07 10:10:06;;;;;;;18.38;8.43;;;2.10;1.00;;;;;;4369832;28;658320;-71
2022/03/07 10:13:00;;;;;;;19.80;9.18;;;2.40;1.00;;;;;;4373989;28;657956;-71
2022/03/07 10:16:01;;;;;;;17.80;9.10;;;2.70;1.00;;;;;;4351496;28;658496;-71
2022/03/07 10:18:53;;;;;;;19.40;9.10;;;2.50;1.00;;;;;;4373771;28;658151;-71
2022/03/07 10:21:57;;;;;;;18.63;8.57;;;2.30;1.00;;;;;;4354764;28;657320;-71
2022/03/07 10:24:45;;;;;;;16.03;7.83;;;2.30;1.00;;;;;;4370057;28;657852;-72
2022/03/07 10:27:34;;;;;;;18.83;8.10;;;2.50;1.00;;;;;;4397210;28;659475;-71
2022/03/07 10:30:24;;;;;;;17.53;7.70;;;2.60;1.00;;;;;;4374352;28;657445;-71
2022/03/07 10:33:13;;;;;;;16.43;7.20;;;2.70;1.00;;;;;;4378186;28;658137;-71
2022/03/07 10:36:01;;;;;;;15.83;6.73;;;3.00;1.00;;;;;;4378411;28;657864;-72
2022/03/07 10:38:56;;;;;;;15.30;5.57;;;3.10;1.00;;;;;;4399794;28;658002;-72
2022/03/07 10:41:45;;;;;;;16.47;6.90;;;3.10;1.00;;;;;;4374792;28;658302;-72
2022/03/07 10:44:34;;;;;;;16.53;7.40;;;2.80;1.00;;;;;;4376938;28;658296;-72
2022/03/07 10:47:31;;;;;;;19.50;8.53;;;2.80;1.00;;;;;;4372168;28;657620;-71
2022/03/07 10:50:24;;;;;;;19.37;7.40;;;2.90;1.00;;;;;;4377427;28;657925;-71
2022/03/07 10:53:14;;;;;;;16.77;7.33;;;2.90;1.00;;;;;;4354603;28;658234;-72
2022/03/07 10:56:10;;;;;;;17.90;7.30;;;2.90;1.00;;;;;;4381324;28;658373;-71
2022/03/07 10:59:12;;;;;;;14.53;6.50;;;3.10;1.00;;;;;;4341933;28;657979;-71
2022/03/07 11:02:10;;;;;;;15.70;6.77;;;3.10;1.00;;;;;;4394255;28;658072;-71
2022/03/07 11:05:07;;;;;;;15.57;7.13;;;3.10;1.00;;;;;;4353545;28;658556;-71
2022/03/07 11:07:57;;;;;;;19.00;8.00;;;3.40;1.00;;;;;;4376052;28;657781;-71
2022/03/07 11:10:52;;;;;;;17.17;7.40;;;3.40;1.00;;;;;;4374571;28;657546;-72
2022/03/07 11:13:50;;;;;;;16.00;6.80;;;3.40;1.00;;;;;;4379924;28;658071;-72
2022/03/07 11:16:42;;;;;;;17.10;7.30;;;3.80;1.00;;;;;;4357241;28;657573;-72
2022/03/07 11:19:29;;;;;;;14.73;6.70;;;4.20;1.00;;;;;;4376024;28;657652;-72
2022/03/07 11:22:17;;;;;;;15.57;6.93;;;4.40;1.00;;;;;;4379971;28;657799;-71
2022/03/07 11:25:06;;;;;;;14.07;7.13;;;4.40;1.00;;;;;;4398890;28;657644;-71
2022/03/07 11:27:55;;;;;;;14.40;7.23;;;4.20;1.00;;;;;;4376694;28;658306;-71
2022/03/07 11:30:46;;;;;;;15.50;7.27;;;4.30;1.00;;;;;;4375446;28;658460;-72
2022/03/07 11:33:37;;;;;;;16.63;7.10;;;5.10;1.00;;;;;;4375545;28;658341;-72
2022/03/07 11:36:26;;;;;;;13.77;6.70;;;5.70;1.00;;;;;;4367369;28;658156;-72
2022/03/07 11:39:14;;;;;;;14.50;7.30;;;5.80;1.00;;;;;;4376514;28;657692;-72
2022/03/07 11:42:12;;;;;;;14.20;6.90;;;5.50;1.00;;;;;;4380386;28;658396;-71
2022/03/07 11:45:05;;;;;;;17.13;7.30;;;5.20;1.00;;;;;;4376451;28;658433;-72
2022/03/07 11:47:54;;;;;;;21.27;10.17;;;5.10;1.00;;;;;;4357597;28;658036;-72
2022/03/07 11:50:42;;;;;;;17.40;7.83;;;4.90;1.00;;;;;;4379668;28;658621;-72
2022/03/07 11:53:29;;;;;;;17.07;7.13;;;4.90;1.00;;;;;;4402335;28;657304;-72
2022/03/07 11:56:17;;;;;;;16.23;7.00;;;4.70;1.00;;;;;;4365115;28;657574;-71
2022/03/07 11:59:07;;;;;;;15.07;7.07;;;4.60;1.00;;;;;;4375027;28;657434;-71
2022/03/07 12:01:55;;;;;;;15.50;6.77;;;4.20;1.00;;;;;;4385937;28;657495;-71
2022/03/07 12:04:44;;;;;;;11.80;6.47;;;3.40;1.00;;;;;;4363104;28;658549;-71
2022/03/07 12:07:32;;;;;;;13.93;7.20;;;3.20;1.00;;;;;;4358044;28;658889;-71
2022/03/07 12:10:20;;;;;;;17.08;7.25;;;3.20;1.00;;;;;;4379276;28;657410;-71
2022/03/07 12:13:08;;;;;;;15.10;7.50;;;3.20;1.00;;;;;;4359080;28;658908;-72
2022/03/07 12:15:57;;;;;;;18.37;7.40;;;3.40;1.00;;;;;;4361965;28;657944;-71
2022/03/07 12:18:45;;;;;;;11.83;6.20;;;3.50;1.00;;;;;;4380865;28;657706;-71
2022/03/07 12:21:34;;;;;;;15.03;7.30;;;4.00;1.00;;;;;;4357913;28;658546;-71
2022/03/07 12:24:22;;;;;;;14.33;6.30;;;4.60;1.00;;;;;;4346327;28;658231;-71
2022/03/07 12:27:11;;;;;;;17.77;7.00;;;5.60;1.00;;;;;;4380127;28;658509;-71
2022/03/07 12:29:59;;;;;;;16.30;6.47;;;5.70;1.00;;;;;;4381457;28;658269;-71
2022/03/07 12:32:46;;;;;;;14.80;6.27;;;5.60;1.00;;;;;;4354781;28;657357;-72
2022/03/07 12:35:34;;;;;;;15.63;6.40;;;5.60;1.00;;;;;;4377911;28;658661;-72
2022/03/07 12:38:25;;;;;;;12.37;5.97;;;5.70;1.00;;;;;;4353536;28;657995;-71
2022/03/07 12:41:13;;;;;;;13.40;5.37;;;5.40;1.00;;;;;;4358578;28;659314;-71
2022/03/07 12:44:01;;;;;;;14.63;6.13;;;4.90;1.00;;;;;;4357949;28;657522;-71
2022/03/07 12:46:48;;;;;;;12.85;5.38;;;4.40;1.00;;;;;;4372761;28;658655;-71
2022/03/07 12:49:36;;;;;;;12.53;5.80;;;4.20;1.00;;;;;;4361109;28;657753;-71
2022/03/07 12:52:25;;;;;;;16.53;5.63;;;4.10;1.00;;;;;;4380249;28;657841;-71
2022/03/07 12:55:15;;;;;;;12.10;5.30;;;4.20;1.00;;;;;;4368614;28;658354;-71
2022/03/07 12:58:03;;;;;;;12.13;6.03;;;4.70;1.00;;;;;;4369657;28;658061;-71
2022/03/07 13:00:55;;;;;;;10.57;4.90;;;5.30;1.00;;;;;;4376241;28;657573;-71
2022/03/07 13:03:42;;;;;;;9.20;5.07;;;5.60;1.00;;;;;;4375394;28;658695;-71
2022/03/07 13:06:36;;;;;;;11.87;4.17;;;5.50;1.00;;;;;;4395395;28;656876;-71
2022/03/07 13:09:28;;;;;;;10.57;5.10;;;5.20;1.00;;;;;;4371715;28;657923;-71
2022/03/07 13:12:17;;;;;;;12.32;5.03;;;5.40;1.00;;;;;;4357515;28;657319;-71
2022/03/07 13:15:05;;;;;;;11.20;4.97;;;5.90;1.00;;;;;;4398267;28;657645;-71
2022/03/07 13:18:02;;;;;;;10.13;4.80;;;6.20;1.00;;;;;;4374676;28;658330;-71
2022/03/07 13:20:50;;;;;;;11.47;5.30;;;5.90;1.00;;;;;;4371989;28;657933;-71
2022/03/07 13:23:37;;;;;;;12.47;4.97;;;5.50;1.00;;;;;;4352090;28;658810;-71
2022/03/07 13:26:27;;;;;;;12.33;5.40;;;5.30;1.00;;;;;;4398689;28;658088;-71
2022/03/07 13:29:20;;;;;;;12.73;4.77;;;5.20;1.00;;;;;;4375620;28;657560;-71
2022/03/07 13:32:08;;;;;;;9.73;4.50;;;5.30;1.00;;;;;;4351301;28;658146;-71
2022/03/07 13:34:57;;;;;;;10.63;4.80;;;5.40;1.00;;;;;;4381194;28;658310;-71
2022/03/07 13:37:45;;;;;;;14.77;5.27;;;5.30;1.00;;;;;;4398161;28;658052;-71
2022/03/07 13:40:36;;;;;;;10.87;4.97;;;5.10;1.00;;;;;;4375837;28;658262;-71
2022/03/07 13:43:28;;;;;;;20.83;7.50;;;4.90;1.00;;;;;;4373070;28;657834;-71
2022/03/07 13:46:17;;;;;;;8.47;4.17;;;4.90;1.00;;;;;;4378738;28;657710;-71
2022/03/07 13:49:05;;;;;;;7.63;3.77;;;4.90;1.00;;;;;;4391683;28;656430;-71
2022/03/07 13:51:53;;;;;;;8.40;3.83;;;4.80;1.00;;;;;;4398225;28;658140;-71
2022/03/07 13:54:41;;;;;;;7.70;3.38;;;4.90;1.00;;;;;;4379860;28;656638;-71
2022/03/07 13:57:33;;;;;;;11.95;4.65;;;4.90;1.00;;;;;;4399578;28;656898;-71
2022/03/07 14:00:22;;;;;;;10.97;4.67;;;4.70;1.00;;;;;;4356040;28;657767;-71
2022/03/07 14:03:11;;;;;;;8.00;3.90;;;4.70;1.00;;;;;;4397487;28;657863;-71
2022/03/07 14:05:59;;;;;;;14.07;4.23;;;4.60;1.00;;;;;;4375935;28;657629;-71
2022/03/07 14:08:47;;;;;;;8.60;3.60;;;4.50;1.00;;;;;;4378897;28;657536;-71
2022/03/07 14:11:34;;;;;;;7.77;3.90;;;4.40;1.00;;;;;;4402561;28;656219;-71
2022/03/07 14:14:24;;;;;;;7.90;4.33;;;4.30;1.00;;;;;;4380099;28;656497;-71
2022/03/07 14:17:16;;;;;;;9.93;4.57;;;4.30;1.00;;;;;;4379103;28;656835;-71
2022/03/07 14:20:07;;;;;;;9.57;4.03;;;4.30;1.00;;;;;;4381988;28;657276;-71
2022/03/07 14:22:54;;;;;;;10.13;4.17;;;4.30;1.00;;;;;;4381654;28;657004;-71
2022/03/07 14:25:42;;;;;;;10.27;4.20;;;4.40;1.00;;;;;;4384364;28;658676;-71
2022/03/07 14:28:32;;;;;;;9.23;4.55;;;4.20;1.00;;;;;;4403029;28;657519;-71
2022/03/07 14:31:19;;;;;;;14.30;5.10;;;4.10;1.00;;;;;;4381097;28;656696;-71